Time;durP1;ratioP1;P1;durP2;ratioP2;P2;SDS_P1;SDS_P2;PMS_P1;PMS_P2;Temp;Humidity;BMP_temperature;BMP_pressure;BME280_temperature;BME280_humidity;BME280_pressure;Samples;Min_cycle;Max_cycle;Signal;HPM_P1;HPM_P2
2021/10/06 00:00:40;;;;;;;9.50;7.10;;;11.70;99.90;;;;;;5015382;28;20523;-51
2021/10/06 00:03:06;;;;;;;9.07;5.65;;;11.70;99.90;;;;;;5033524;28;20026;-49
2021/10/06 00:05:31;;;;;;;9.85;6.78;;;11.80;99.90;;;;;;5035433;28;20032;-50
2021/10/06 00:07:57;;;;;;;9.50;6.45;;;11.80;99.90;;;;;;5034710;28;20049;-48
2021/10/06 00:10:22;;;;;;;5.97;4.95;;;11.80;99.90;;;;;;5035633;28;20096;-50
2021/10/06 00:12:48;;;;;;;5.85;4.68;;;11.80;99.90;;;;;;5035640;28;20112;-50
2021/10/06 00:15:14;;;;;;;7.20;5.40;;;11.80;99.90;;;;;;5035546;28;20029;-47
2021/10/06 00:17:41;;;;;;;8.73;5.38;;;11.80;99.90;;;;;;5035715;28;20037;-49
2021/10/06 00:20:09;;;;;;;8.35;6.00;;;11.80;99.90;;;;;;5016461;28;20090;-53
2021/10/06 00:22:34;;;;;;;5.65;4.65;;;11.80;99.90;;;;;;5026665;28;20215;-50
2021/10/06 00:25:00;;;;;;;7.60;6.15;;;11.80;99.90;;;;;;5031904;28;20112;-49
2021/10/06 00:27:25;;;;;;;6.63;5.05;;;11.80;99.90;;;;;;5031846;28;20026;-49
2021/10/06 00:29:51;;;;;;;6.75;5.35;;;11.80;99.90;;;;;;5023672;28;20034;-51
2021/10/06 00:32:16;;;;;;;5.90;4.22;;;11.80;99.90;;;;;;5017753;28;20105;-46
2021/10/06 00:34:42;;;;;;;6.13;5.53;;;11.80;99.90;;;;;;5016014;28;20068;-50
2021/10/06 00:37:08;;;;;;;7.95;5.47;;;11.90;99.90;;;;;;5028464;28;20033;-48
2021/10/06 00:39:33;;;;;;;11.00;6.10;;;11.90;99.90;;;;;;5034341;28;20029;-50
2021/10/06 00:41:59;;;;;;;5.88;5.05;;;11.90;99.90;;;;;;5034229;28;20035;-49
2021/10/06 00:44:24;;;;;;;6.20;4.45;;;11.90;99.90;;;;;;5053394;28;20028;-51
2021/10/06 00:46:50;;;;;;;5.53;4.53;;;12.00;99.90;;;;;;5053693;28;20039;-50
2021/10/06 00:49:17;;;;;;;6.95;6.20;;;12.00;99.90;;;;;;5053828;28;20025;-49
2021/10/06 00:51:43;;;;;;;7.38;4.82;;;12.10;99.90;;;;;;5052954;28;20051;-52
2021/10/06 00:54:08;;;;;;;5.43;4.55;;;12.10;99.90;;;;;;5020745;28;20034;-48
2021/10/06 00:56:34;;;;;;;6.22;5.22;;;12.10;99.90;;;;;;5033969;28;20064;-51
2021/10/06 00:59:00;;;;;;;6.10;4.88;;;12.10;99.90;;;;;;5033770;28;20064;-50
2021/10/06 01:01:26;;;;;;;5.68;5.10;;;12.10;99.90;;;;;;5033026;28;20021;-49
2021/10/06 01:03:51;;;;;;;6.20;4.57;;;12.20;99.90;;;;;;5037787;28;20025;-48
2021/10/06 01:06:17;;;;;;;5.18;4.68;;;12.10;99.90;;;;;;5052824;28;20036;-51
2021/10/06 01:08:43;;;;;;;5.00;4.50;;;12.10;99.90;;;;;;5049568;28;20057;-53
2021/10/06 01:11:10;;;;;;;6.15;4.57;;;12.10;99.90;;;;;;5033484;28;20076;-52
2021/10/06 01:13:37;;;;;;;5.40;4.88;;;12.10;99.90;;;;;;5033776;28;20022;-48
2021/10/06 01:16:04;;;;;;;5.13;4.30;;;12.00;99.90;;;;;;5033813;28;20451;-50
2021/10/06 01:18:29;;;;;;;6.35;4.40;;;11.90;99.90;;;;;;5022772;28;20032;-51
2021/10/06 01:20:55;;;;;;;5.68;3.70;;;11.90;99.90;;;;;;5033637;28;20077;-48
2021/10/06 01:23:20;;;;;;;6.45;4.32;;;11.80;99.90;;;;;;5032670;28;20385;-49
2021/10/06 01:25:46;;;;;;;4.40;4.00;;;11.70;99.90;;;;;;5033450;28;20033;-49
2021/10/06 01:28:12;;;;;;;4.38;3.65;;;11.70;99.90;;;;;;5030312;28;20059;-51
2021/10/06 01:30:37;;;;;;;4.60;3.92;;;11.60;99.90;;;;;;5033431;28;20033;-51
2021/10/06 01:33:03;;;;;;;4.75;4.18;;;11.50;99.90;;;;;;5033274;28;20060;-50
2021/10/06 01:35:28;;;;;;;5.70;4.40;;;11.50;99.90;;;;;;5033095;28;20045;-46
2021/10/06 01:37:54;;;;;;;4.93;3.58;;;11.40;99.90;;;;;;5032182;28;20087;-49
2021/10/06 01:40:22;;;;;;;5.22;4.00;;;11.30;99.90;;;;;;5033049;28;20036;-51
2021/10/06 01:42:50;;;;;;;6.28;3.97;;;11.30;99.90;;;;;;5032970;28;20021;-49
2021/10/06 01:45:28;;;;;;;5.28;3.83;;;11.30;99.90;;;;;;5033071;28;20037;-48
2021/10/06 01:48:02;;;;;;;4.13;3.40;;;11.20;99.90;;;;;;5032985;28;20025;-50
2021/10/06 01:50:29;;;;;;;5.07;3.55;;;11.20;99.90;;;;;;5045904;28;20021;-47
2021/10/06 01:52:54;;;;;;;4.63;3.75;;;11.10;99.90;;;;;;5045523;28;20540;-51
2021/10/06 01:55:31;;;;;;;5.32;3.97;;;11.10;99.90;;;;;;5032783;28;20036;-51
2021/10/06 01:57:59;;;;;;;5.75;3.83;;;11.00;99.90;;;;;;5032519;28;20064;-50
2021/10/06 02:00:26;;;;;;;6.82;4.80;;;11.00;99.90;;;;;;5032912;28;20033;-49
2021/10/06 02:02:52;;;;;;;4.90;3.03;;;11.00;99.90;;;;;;5032828;28;20167;-52
2021/10/06 02:05:17;;;;;;;6.55;4.30;;;11.00;99.90;;;;;;5032675;28;20018;-50
2021/10/06 02:07:42;;;;;;;4.82;3.45;;;11.10;99.90;;;;;;5031202;28;20120;-48
2021/10/06 02:10:08;;;;;;;6.07;4.10;;;11.10;99.90;;;;;;5020782;28;20033;-49
2021/10/06 02:12:34;;;;;;;5.60;4.22;;;11.10;99.90;;;;;;5026091;28;20481;-48
2021/10/06 02:15:00;;;;;;;4.75;4.22;;;11.20;99.90;;;;;;5029252;28;20030;-52
2021/10/06 02:17:26;;;;;;;6.55;4.28;;;11.20;99.90;;;;;;5023331;28;20036;-49
2021/10/06 02:19:51;;;;;;;5.38;4.03;;;11.30;99.90;;;;;;5032277;28;20118;-50
2021/10/06 02:22:17;;;;;;;4.15;3.60;;;11.40;99.90;;;;;;5031227;28;20108;-49
2021/10/06 02:24:43;;;;;;;4.97;4.45;;;11.40;99.90;;;;;;5032650;28;20025;-48
2021/10/06 02:27:08;;;;;;;5.85;4.75;;;11.50;99.90;;;;;;5033282;28;20069;-53
2021/10/06 02:29:34;;;;;;;5.78;3.53;;;11.50;99.90;;;;;;5033082;28;20033;-52
2021/10/06 02:31:59;;;;;;;4.82;3.15;;;11.50;99.90;;;;;;5033159;28;20048;-51
2021/10/06 02:34:25;;;;;;;5.47;3.85;;;11.50;99.90;;;;;;5032942;28;20029;-54
2021/10/06 02:36:52;;;;;;;5.30;4.20;;;11.50;99.90;;;;;;5032098;28;20017;-48
2021/10/06 02:39:17;;;;;;;4.00;3.33;;;11.60;99.90;;;;;;5033258;28;20025;-48
2021/10/06 02:41:43;;;;;;;5.43;3.78;;;11.50;99.90;;;;;;5033035;28;20129;-47
2021/10/06 02:44:08;;;;;;;8.60;3.90;;;11.60;99.90;;;;;;5032732;28;20362;-50
2021/10/06 02:46:34;;;;;;;3.83;3.40;;;11.60;99.90;;;;;;5032949;28;20524;-48
2021/10/06 02:48:59;;;;;;;4.40;3.85;;;11.70;99.90;;;;;;5032939;28;20025;-49
2021/10/06 02:51:25;;;;;;;4.28;3.67;;;11.70;99.90;;;;;;5031802;28;20025;-49
2021/10/06 02:53:50;;;;;;;4.88;3.67;;;11.70;99.90;;;;;;5032928;28;20030;-51
2021/10/06 02:56:16;;;;;;;4.57;3.65;;;11.80;99.90;;;;;;5032640;28;20026;-51
2021/10/06 02:58:41;;;;;;;3.42;3.13;;;11.80;99.90;;;;;;5032760;28;20033;-51
2021/10/06 03:01:07;;;;;;;4.50;3.63;;;11.80;99.90;;;;;;5032574;28;20068;-48
2021/10/06 03:03:34;;;;;;;3.92;3.10;;;11.80;99.90;;;;;;5032694;28;20481;-48
2021/10/06 03:05:59;;;;;;;4.78;3.97;;;11.80;99.90;;;;;;5032392;28;20100;-51
2021/10/06 03:08:25;;;;;;;3.75;3.05;;;11.80;99.90;;;;;;5031061;28;20076;-48
2021/10/06 03:10:50;;;;;;;5.28;4.32;;;11.80;99.90;;;;;;5032541;28;20025;-47
2021/10/06 03:13:16;;;;;;;4.68;4.18;;;11.80;99.90;;;;;;5032583;28;20029;-48
2021/10/06 03:15:43;;;;;;;4.30;3.88;;;11.70;99.90;;;;;;5032319;28;20080;-49
2021/10/06 03:18:08;;;;;;;5.85;3.55;;;11.60;99.90;;;;;;5032517;28;20144;-49
2021/10/06 03:20:36;;;;;;;4.97;4.47;;;11.60;99.90;;;;;;5032317;28;20475;-46
2021/10/06 03:23:06;;;;;;;5.03;3.78;;;11.60;99.90;;;;;;5031370;28;20056;-52
2021/10/06 03:25:32;;;;;;;4.70;3.92;;;11.50;99.90;;;;;;5032403;28;20033;-47
2021/10/06 03:27:57;;;;;;;4.63;3.50;;;11.50;99.90;;;;;;5032438;28;20022;-48
2021/10/06 03:30:23;;;;;;;7.05;4.85;;;11.40;99.90;;;;;;5032285;28;20056;-52
2021/10/06 03:32:49;;;;;;;4.13;3.35;;;11.40;99.90;;;;;;5032398;28;20029;-51
2021/10/06 03:35:18;;;;;;;3.72;3.35;;;11.30;99.90;;;;;;5023226;28;20045;-49
2021/10/06 03:37:47;;;;;;;6.07;4.53;;;11.30;99.90;;;;;;5011774;28;20030;-46
2021/10/06 03:40:14;;;;;;;4.07;3.35;;;11.20;99.90;;;;;;5012475;28;20026;-46
2021/10/06 03:42:40;;;;;;;4.70;3.70;;;11.20;99.90;;;;;;5012498;28;20068;-51
2021/10/06 03:45:09;;;;;;;3.85;3.42;;;11.20;99.90;;;;;;5012295;28;20054;-50
2021/10/06 03:47:35;;;;;;;4.70;3.75;;;11.20;99.90;;;;;;5012550;28;20037;-47
2021/10/06 03:50:02;;;;;;;4.82;3.67;;;11.20;99.90;;;;;;5012457;28;20030;-49
2021/10/06 03:52:27;;;;;;;3.40;3.10;;;11.20;99.90;;;;;;5011674;28;20057;-49
2021/10/06 03:54:52;;;;;;;4.93;3.63;;;11.20;99.90;;;;;;5012583;28;20053;-45
2021/10/06 03:57:18;;;;;;;5.60;3.38;;;11.30;99.90;;;;;;5012302;28;20436;-48
2021/10/06 03:59:43;;;;;;;3.72;3.05;;;11.40;99.90;;;;;;5012400;28;20073;-49
2021/10/06 04:02:10;;;;;;;6.93;4.13;;;11.40;99.90;;;;;;5012048;28;20041;-50
2021/10/06 04:04:35;;;;;;;4.55;3.42;;;11.50;99.90;;;;;;5012428;28;20225;-50
2021/10/06 04:07:01;;;;;;;3.95;3.50;;;11.60;99.90;;;;;;5011220;28;20050;-48
2021/10/06 04:09:26;;;;;;;5.15;4.15;;;11.60;99.90;;;;;;5011085;28;20029;-51
2021/10/06 04:11:51;;;;;;;7.13;4.50;;;11.70;99.90;;;;;;5012438;28;20029;-46
2021/10/06 04:14:17;;;;;;;6.07;3.70;;;11.80;99.90;;;;;;5018884;28;20037;-52
2021/10/06 04:16:44;;;;;;;6.35;3.90;;;11.90;99.90;;;;;;5031775;28;20037;-50
2021/10/06 04:19:09;;;;;;;4.40;4.00;;;12.00;99.90;;;;;;5032034;28;20113;-53
2021/10/06 04:21:35;;;;;;;5.78;4.43;;;12.00;99.90;;;;;;5034148;28;20065;-49
2021/10/06 04:24:01;;;;;;;5.65;3.72;;;12.00;99.90;;;;;;5035672;28;20037;-53
2021/10/06 04:26:27;;;;;;;6.53;4.25;;;12.10;99.90;;;;;;5035471;28;20025;-51
2021/10/06 04:28:52;;;;;;;5.47;3.90;;;12.10;99.90;;;;;;5035946;28;20030;-50
2021/10/06 04:31:19;;;;;;;4.40;3.33;;;12.10;99.90;;;;;;5035110;28;20025;-53
2021/10/06 04:33:46;;;;;;;3.88;3.38;;;12.20;99.90;;;;;;5035405;28;20029;-51
2021/10/06 04:36:12;;;;;;;4.25;3.20;;;12.20;99.90;;;;;;5017658;28;20080;-53
2021/10/06 04:38:38;;;;;;;4.30;3.20;;;12.20;99.90;;;;;;5015656;28;20038;-52
2021/10/06 04:41:03;;;;;;;4.28;3.22;;;12.30;99.90;;;;;;5015408;28;20050;-47
2021/10/06 04:43:29;;;;;;;4.45;2.85;;;12.30;99.90;;;;;;5017139;28;20033;-48
2021/10/06 04:45:54;;;;;;;4.15;3.25;;;12.30;99.90;;;;;;5034676;28;20083;-52
2021/10/06 04:48:20;;;;;;;4.65;3.05;;;12.30;99.90;;;;;;5034915;28;20029;-50
2021/10/06 04:50:45;;;;;;;3.92;3.10;;;12.30;99.90;;;;;;5034940;28;20104;-49
2021/10/06 04:53:11;;;;;;;3.03;2.72;;;12.30;99.90;;;;;;5031468;28;20105;-47
2021/10/06 04:55:37;;;;;;;3.90;2.83;;;12.30;99.90;;;;;;5034817;28;20032;-49
2021/10/06 04:58:03;;;;;;;3.55;2.72;;;12.40;99.90;;;;;;5034909;28;20378;-49
2021/10/06 05:00:28;;;;;;;2.80;2.55;;;12.40;99.90;;;;;;5034569;28;20052;-53
2021/10/06 05:02:54;;;;;;;4.18;3.17;;;12.40;99.90;;;;;;5034376;28;20120;-51
2021/10/06 05:05:19;;;;;;;5.05;3.03;;;12.40;99.90;;;;;;5034472;28;20022;-51
2021/10/06 05:07:45;;;;;;;3.33;2.45;;;12.40;99.90;;;;;;5033419;28;20209;-49
2021/10/06 05:10:10;;;;;;;4.25;2.30;;;12.40;99.90;;;;;;5034484;28;20022;-50
2021/10/06 05:12:36;;;;;;;3.83;2.97;;;12.40;99.90;;;;;;5033962;28;20073;-49
2021/10/06 05:15:02;;;;;;;4.05;2.60;;;12.40;99.90;;;;;;5028661;28;20392;-52
2021/10/06 05:17:27;;;;;;;3.45;3.10;;;12.40;99.90;;;;;;5034121;28;20144;-50
2021/10/06 05:19:53;;;;;;;3.28;2.95;;;12.50;99.90;;;;;;5034520;28;20071;-49
2021/10/06 05:22:18;;;;;;;4.63;3.08;;;12.50;99.90;;;;;;5033216;28;20037;-48
2021/10/06 05:24:44;;;;;;;5.15;3.58;;;12.50;99.90;;;;;;5034358;28;20476;-47
2021/10/06 05:27:09;;;;;;;3.80;3.50;;;12.50;99.90;;;;;;5034352;28;20140;-48
2021/10/06 05:29:35;;;;;;;2.95;2.70;;;12.50;99.90;;;;;;5034517;28;20029;-51
2021/10/06 05:32:04;;;;;;;3.85;3.00;;;12.50;99.90;;;;;;5033554;28;20385;-50
2021/10/06 05:34:33;;;;;;;4.47;3.10;;;12.50;99.90;;;;;;5031467;28;20385;-49
2021/10/06 05:36:59;;;;;;;3.55;2.58;;;12.50;99.90;;;;;;5013530;28;20025;-52
2021/10/06 05:39:25;;;;;;;8.00;3.50;;;12.50;99.90;;;;;;5014718;28;20041;-46
2021/10/06 05:41:50;;;;;;;4.22;3.33;;;12.50;99.90;;;;;;5014232;28;20469;-52
2021/10/06 05:44:16;;;;;;;2.72;2.50;;;12.60;99.90;;;;;;5014116;28;20045;-52
2021/10/06 05:46:41;;;;;;;4.60;3.50;;;12.50;99.90;;;;;;5014123;28;20105;-50
2021/10/06 05:49:07;;;;;;;4.28;3.20;;;12.60;99.90;;;;;;5014201;28;20049;-48
2021/10/06 05:51:33;;;;;;;4.20;2.83;;;12.60;99.90;;;;;;5013096;28;20032;-48
2021/10/06 05:53:59;;;;;;;4.25;2.75;;;12.60;99.90;;;;;;5014188;28;20022;-50
2021/10/06 05:56:24;;;;;;;7.47;3.88;;;12.60;99.90;;;;;;5013890;28;20044;-50
2021/10/06 05:58:50;;;;;;;11.43;4.60;;;12.60;99.90;;;;;;5014197;28;20029;-51
2021/10/06 06:01:15;;;;;;;9.73;3.83;;;12.60;99.90;;;;;;5013559;28;20045;-55
2021/10/06 06:03:41;;;;;;;3.75;3.00;;;12.70;99.90;;;;;;5013639;28;20030;-52
2021/10/06 06:06:08;;;;;;;4.45;3.08;;;12.70;99.90;;;;;;4982230;28;20034;-49
2021/10/06 06:08:34;;;;;;;3.83;3.05;;;12.70;99.90;;;;;;4995820;28;20057;-51
2021/10/06 06:11:00;;;;;;;4.70;3.28;;;12.70;99.90;;;;;;5013959;28;20061;-49
2021/10/06 06:13:25;;;;;;;4.47;3.17;;;12.70;99.90;;;;;;5013568;28;20107;-49
2021/10/06 06:15:53;;;;;;;5.38;4.10;;;12.70;99.90;;;;;;5033017;28;20097;-50
2021/10/06 06:18:19;;;;;;;4.68;3.10;;;12.70;99.90;;;;;;5033192;28;20021;-49
2021/10/06 06:20:45;;;;;;;3.20;2.80;;;12.70;99.90;;;;;;5033370;28;20056;-51
2021/10/06 06:23:10;;;;;;;3.90;2.85;;;12.70;99.90;;;;;;5032351;28;20465;-49
2021/10/06 06:25:36;;;;;;;2.75;2.55;;;12.80;99.90;;;;;;5033278;28;20032;-50
2021/10/06 06:28:01;;;;;;;5.53;3.00;;;12.90;99.90;;;;;;5033197;28;20041;-48
2021/10/06 06:30:28;;;;;;;3.22;2.88;;;13.00;99.90;;;;;;5033028;28;20104;-51
2021/10/06 06:32:53;;;;;;;5.10;2.85;;;13.10;99.90;;;;;;5033034;28;20138;-52
2021/10/06 06:35:19;;;;;;;3.80;2.67;;;13.30;99.90;;;;;;5023607;28;20026;-48
2021/10/06 06:37:45;;;;;;;2.45;2.15;;;13.50;99.90;;;;;;5012363;28;20025;-48
2021/10/06 06:40:10;;;;;;;3.83;2.60;;;13.50;99.90;;;;;;5013301;28;20095;-53
2021/10/06 06:42:36;;;;;;;3.58;2.60;;;13.70;99.90;;;;;;5012580;28;20030;-48
2021/10/06 06:45:03;;;;;;;3.17;2.40;;;13.80;99.90;;;;;;5012965;28;20022;-50
2021/10/06 06:47:28;;;;;;;3.40;2.85;;;13.90;99.90;;;;;;5013157;28;20496;-48
2021/10/06 06:49:54;;;;;;;3.75;2.72;;;14.00;99.90;;;;;;5013140;28;20057;-49
2021/10/06 06:52:20;;;;;;;5.35;2.70;;;14.10;99.90;;;;;;5012091;28;20485;-49
2021/10/06 06:54:45;;;;;;;4.28;2.60;;;14.40;99.90;;;;;;5013172;28;20026;-51
2021/10/06 06:57:11;;;;;;;3.17;2.58;;;14.60;99.90;;;;;;5013165;28;20523;-51
2021/10/06 06:59:37;;;;;;;3.00;2.17;;;15.10;99.90;;;;;;5012870;28;20018;-50
2021/10/06 07:02:03;;;;;;;6.10;2.40;;;16.10;99.90;;;;;;5012890;28;20026;-52
2021/10/06 07:04:28;;;;;;;7.35;2.25;;;17.60;99.90;;;;;;5012749;28;20388;-47
2021/10/06 07:06:56;;;;;;;1.77;1.60;;;18.80;99.90;;;;;;5011886;28;20506;-48
2021/10/06 07:09:24;;;;;;;2.40;1.55;;;19.90;99.90;;;;;;5012944;28;20014;-48
2021/10/06 07:11:51;;;;;;;2.47;1.58;;;20.90;99.90;;;;;;5012899;28;20069;-49
2021/10/06 07:14:17;;;;;;;2.33;1.60;;;21.80;99.90;;;;;;5019202;28;20095;-48
2021/10/06 07:16:42;;;;;;;1.35;1.25;;;22.50;99.90;;;;;;5032566;28;20391;-47
2021/10/06 07:19:08;;;;;;;1.60;1.20;;;23.20;99.90;;;;;;5029965;28;20030;-48
2021/10/06 07:21:33;;;;;;;1.20;1.10;;;23.60;99.90;;;;;;5011778;28;20026;-50
2021/10/06 07:23:59;;;;;;;3.47;1.30;;;24.00;99.90;;;;;;5012637;28;20030;-49
2021/10/06 07:26:24;;;;;;;2.63;1.20;;;24.30;99.90;;;;;;5012740;28;20049;-51
2021/10/06 07:28:50;;;;;;;1.05;0.93;;;24.70;99.90;;;;;;5012480;28;20032;-46
2021/10/06 07:31:16;;;;;;;3.28;0.95;;;25.00;98.30;;;;;;5012751;28;20053;-50
2021/10/06 07:33:41;;;;;;;2.13;1.10;;;25.40;96.60;;;;;;5012527;28;20026;-50
2021/10/06 07:36:07;;;;;;;1.63;0.90;;;25.70;95.20;;;;;;5027460;28;20029;-48
2021/10/06 07:38:32;;;;;;;2.53;1.10;;;25.80;93.50;;;;;;5032161;28;20445;-48
2021/10/06 07:40:58;;;;;;;1.58;1.00;;;26.00;91.80;;;;;;5032154;28;20026;-46
2021/10/06 07:43:23;;;;;;;3.03;0.80;;;25.90;91.20;;;;;;5029167;28;20069;-50
2021/10/06 07:45:50;;;;;;;1.95;0.93;;;25.40;76.90;;;;;;5012733;28;20030;-47
2021/10/06 07:48:16;;;;;;;3.00;1.05;;;24.50;90.50;;;;;;5012547;28;20026;-50
2021/10/06 07:50:42;;;;;;;0.73;0.70;;;23.50;89.50;;;;;;5012265;28;20030;-46
2021/10/06 07:53:07;;;;;;;2.17;0.90;;;22.70;92.40;;;;;;5011554;28;20032;-50
2021/10/06 07:55:33;;;;;;;2.85;0.90;;;22.30;91.40;;;;;;5014497;28;20401;-55
2021/10/06 07:57:59;;;;;;;1.00;0.73;;;22.40;92.30;;;;;;5031656;28;20017;-47
2021/10/06 08:00:24;;;;;;;2.55;0.88;;;22.60;93.00;;;;;;5036079;28;20512;-49
2021/10/06 08:02:50;;;;;;;1.17;0.70;;;22.50;92.50;;;;;;5035711;28;20026;-45
2021/10/06 08:05:15;;;;;;;0.70;0.63;;;22.40;91.80;;;;;;5035816;28;20428;-49
2021/10/06 08:07:41;;;;;;;3.10;0.70;;;22.70;92.10;;;;;;5034648;28;20428;-48
2021/10/06 08:10:07;;;;;;;1.42;0.95;;;23.00;90.50;;;;;;5035962;28;20109;-46
2021/10/06 08:12:33;;;;;;;1.77;0.65;;;23.10;90.50;;;;;;5035631;28;20556;-46
2021/10/06 08:14:58;;;;;;;0.88;0.52;;;23.00;81.80;;;;;;5023359;28;20061;-43
2021/10/06 08:17:24;;;;;;;0.93;0.50;;;23.00;85.20;;;;;;5016054;28;20572;-44
2021/10/06 08:19:50;;;;;;;0.63;0.50;;;22.80;85.00;;;;;;5015892;28;20045;-45
2021/10/06 08:22:17;;;;;;;2.20;0.77;;;22.50;81.90;;;;;;5014843;28;20025;-49
2021/10/06 08:24:42;;;;;;;1.92;0.80;;;22.10;80.90;;;;;;5015663;28;20052;-50
2021/10/06 08:27:09;;;;;;;1.30;0.70;;;21.80;82.00;;;;;;5015799;28;20022;-47
2021/10/06 08:29:34;;;;;;;6.05;1.85;;;21.50;84.00;;;;;;5015677;28;20025;-43
2021/10/06 08:32:00;;;;;;;1.95;1.40;;;21.30;85.10;;;;;;5015897;28;20044;-51
2021/10/06 08:34:26;;;;;;;2.13;1.15;;;21.00;80.30;;;;;;5017530;28;20481;-47
2021/10/06 08:36:51;;;;;;;2.35;1.23;;;20.90;85.30;;;;;;5034333;28;20029;-45
2021/10/06 08:39:17;;;;;;;1.40;0.70;;;20.80;84.50;;;;;;5035282;28;20114;-49
2021/10/06 08:41:42;;;;;;;1.45;0.75;;;20.80;85.80;;;;;;5035183;28;20568;-48
2021/10/06 08:44:08;;;;;;;1.33;0.63;;;20.80;82.50;;;;;;5035138;28;20025;-47
2021/10/06 08:46:34;;;;;;;2.15;0.80;;;21.00;89.60;;;;;;5035134;28;20064;-45
2021/10/06 08:49:00;;;;;;;1.58;0.60;;;21.00;90.20;;;;;;5034979;28;20053;-48
2021/10/06 08:51:27;;;;;;;3.55;0.90;;;21.20;91.60;;;;;;5034191;28;20033;-50
2021/10/06 08:53:53;;;;;;;2.85;0.60;;;21.30;86.10;;;;;;5034868;28;20057;-49
2021/10/06 08:56:21;;;;;;;1.73;0.70;;;21.60;90.60;;;;;;5034965;28;20037;-48
2021/10/06 08:58:47;;;;;;;1.27;0.80;;;21.80;85.10;;;;;;5034792;28;20037;-47
2021/10/06 09:01:27;;;;;;;1.05;0.75;;;21.90;85.50;;;;;;5035092;28;20029;-47
2021/10/06 09:03:55;;;;;;;2.28;0.88;;;22.10;75.00;;;;;;5034688;28;20033;-49
2021/10/06 09:06:21;;;;;;;1.27;0.80;;;22.30;78.20;;;;;;5033035;28;20026;-49
2021/10/06 09:08:47;;;;;;;2.15;0.70;;;22.40;77.30;;;;;;5034443;28;20050;-49
2021/10/06 09:11:14;;;;;;;1.05;0.63;;;22.50;75.90;;;;;;5034666;28;20021;-47
2021/10/06 09:13:42;;;;;;;2.95;0.90;;;22.60;75.10;;;;;;5034424;28;20057;-45
2021/10/06 09:16:09;;;;;;;1.40;0.75;;;22.70;74.50;;;;;;5033488;28;20112;-45
2021/10/06 09:18:35;;;;;;;1.45;0.73;;;22.70;66.90;;;;;;5034566;28;20064;-46
2021/10/06 09:21:07;;;;;;;3.05;1.02;;;22.70;68.50;;;;;;5033545;28;20496;-51
2021/10/06 09:23:39;;;;;;;1.73;0.80;;;22.20;55.10;;;;;;5034135;28;20029;-44
2021/10/06 09:26:07;;;;;;;1.85;0.68;;;22.00;60.50;;;;;;5034616;28;20030;-47
2021/10/06 09:28:37;;;;;;;3.70;0.80;;;21.70;62.20;;;;;;5034449;28;20465;-48
2021/10/06 09:31:10;;;;;;;2.08;1.00;;;21.40;59.00;;;;;;5034558;28;20029;-50
2021/10/06 09:33:58;;;;;;;2.90;1.65;;;21.30;60.70;;;;;;5034205;28;20413;-50
2021/10/06 09:36:29;;;;;;;2.47;1.63;;;21.10;58.10;;;;;;5014902;28;20029;-46
2021/10/06 09:39:09;;;;;;;2.88;1.10;;;21.00;61.20;;;;;;5014271;28;20036;-46
2021/10/06 09:41:42;;;;;;;1.55;0.80;;;20.90;59.10;;;;;;5014325;28;20030;-47
2021/10/06 09:44:16;;;;;;;3.67;0.77;;;20.90;61.10;;;;;;5013966;28;20053;-45
2021/10/06 09:46:54;;;;;;;1.83;0.80;;;21.00;60.10;;;;;;5014242;28;20645;-45
2021/10/06 09:49:36;;;;;;;2.45;0.80;;;21.10;61.00;;;;;;5013804;28;20021;-48
2021/10/06 09:52:45;;;;;;;1.02;0.50;;;21.30;60.30;;;;;;5013111;28;20026;-45
2021/10/06 09:55:10;;;;;;;1.38;0.60;;;21.10;55.00;;;;;;5009381;28;20072;-43
2021/10/06 09:57:41;;;;;;;1.98;0.70;;;20.90;60.00;;;;;;5014031;28;20058;-44
2021/10/06 10:00:10;;;;;;;2.53;0.80;;;20.80;58.30;;;;;;5014154;28;20026;-46
2021/10/06 10:02:36;;;;;;;1.65;0.90;;;20.70;59.00;;;;;;5013871;28;20666;-47
2021/10/06 10:05:04;;;;;;;0.73;0.50;;;20.60;59.20;;;;;;5013358;28;20034;-52
2021/10/06 10:07:29;;;;;;;1.08;0.40;;;20.40;58.40;;;;;;5032096;28;20082;-49
2021/10/06 10:09:55;;;;;;;1.73;0.60;;;20.20;58.70;;;;;;5033206;28;20049;-48
2021/10/06 10:12:23;;;;;;;4.40;0.90;;;20.00;59.20;;;;;;5033729;28;20025;-47
2021/10/06 10:14:49;;;;;;;0.70;0.60;;;19.90;59.40;;;;;;5033132;28;20021;-47
2021/10/06 10:17:16;;;;;;;0.50;0.40;;;19.80;59.70;;;;;;5033554;28;20084;-49
2021/10/06 10:19:52;;;;;;;1.30;0.60;;;19.80;59.30;;;;;;5033215;28;20029;-49
2021/10/06 10:22:20;;;;;;;2.65;0.60;;;19.90;59.40;;;;;;5032514;28;20026;-48
2021/10/06 10:24:48;;;;;;;1.55;0.63;;;19.90;59.70;;;;;;5033083;28;20116;-48
2021/10/06 10:27:22;;;;;;;1.90;0.80;;;19.90;59.20;;;;;;5033428;28;20017;-49
2021/10/06 10:29:48;;;;;;;2.33;0.57;;;19.90;59.10;;;;;;5033062;28;20053;-50
2021/10/06 10:32:19;;;;;;;2.10;0.60;;;19.90;58.40;;;;;;5031164;28;20072;-48
2021/10/06 10:35:03;;;;;;;2.33;0.70;;;19.90;58.40;;;;;;5028121;28;20018;-51
2021/10/06 10:37:53;;;;;;;1.15;0.60;;;19.90;55.30;;;;;;5012525;28;20358;-48
2021/10/06 10:40:40;;;;;;;1.67;0.82;;;19.80;57.70;;;;;;5013207;28;20064;-48
2021/10/06 10:43:16;;;;;;;0.95;0.47;;;19.80;55.30;;;;;;5013227;28;20034;-48
2021/10/06 10:45:59;;;;;;;3.35;0.90;;;19.60;58.20;;;;;;5013258;28;20021;-52
2021/10/06 10:48:30;;;;;;;1.27;0.60;;;19.40;57.70;;;;;;5013278;28;20104;-48
2021/10/06 10:50:56;;;;;;;1.58;0.63;;;19.30;58.50;;;;;;5012380;28;20643;-50
2021/10/06 10:53:51;;;;;;;1.15;0.50;;;19.20;58.60;;;;;;5013163;28;20057;-46
2021/10/06 10:56:49;;;;;;;0.88;0.50;;;19.10;57.70;;;;;;5013114;28;20022;-50
2021/10/06 10:59:20;;;;;;;1.35;0.60;;;19.20;59.90;;;;;;5013224;28;20061;-48
2021/10/06 11:01:48;;;;;;;0.55;0.50;;;19.10;60.20;;;;;;5012959;28;20030;-51
2021/10/06 11:04:21;;;;;;;1.27;0.50;;;19.20;60.90;;;;;;5012850;28;20029;-48
2021/10/06 11:06:50;;;;;;;1.65;0.63;;;19.20;61.30;;;;;;5011904;28;20109;-47
2021/10/06 11:09:30;;;;;;;1.02;0.60;;;19.20;61.50;;;;;;5012881;28;20101;-53
2021/10/06 11:12:20;;;;;;;3.72;0.80;;;19.20;60.00;;;;;;5012754;28;20045;-48
2021/10/06 11:14:48;;;;;;;1.95;0.70;;;19.10;60.00;;;;;;5019660;28;20041;-50
2021/10/06 11:17:16;;;;;;;1.60;0.65;;;19.10;59.00;;;;;;5032743;28;20036;-48
2021/10/06 11:19:44;;;;;;;4.35;0.93;;;19.00;59.80;;;;;;5032454;28;20037;-46
2021/10/06 11:22:28;;;;;;;1.35;0.75;;;18.90;59.90;;;;;;5031606;28;20140;-48
2021/10/06 11:25:01;;;;;;;1.75;0.82;;;18.80;60.50;;;;;;5032223;28;20112;-49
2021/10/06 11:27:29;;;;;;;1.95;0.60;;;18.80;61.50;;;;;;5032435;28;20112;-50
2021/10/06 11:29:57;;;;;;;2.35;0.80;;;18.80;60.70;;;;;;5037065;28;20029;-49
2021/10/06 11:32:24;;;;;;;1.70;0.65;;;18.90;61.20;;;;;;5039238;28;20392;-46
2021/10/06 11:34:52;;;;;;;0.70;0.50;;;19.00;60.60;;;;;;5038606;28;20033;-47
2021/10/06 11:37:19;;;;;;;2.45;0.80;;;19.00;59.20;;;;;;5038211;28;20116;-49
2021/10/06 11:39:46;;;;;;;1.50;0.65;;;19.00;59.90;;;;;;5038821;28;20041;-48
2021/10/06 11:42:12;;;;;;;1.90;0.70;;;19.00;59.40;;;;;;5039043;28;20036;-49
2021/10/06 11:44:39;;;;;;;3.10;0.68;;;19.00;60.00;;;;;;5038818;28;20354;-48
2021/10/06 11:47:09;;;;;;;0.63;0.55;;;18.90;58.00;;;;;;5038772;28;20057;-49
2021/10/06 11:49:39;;;;;;;2.38;0.52;;;18.80;58.00;;;;;;5035632;28;20153;-50
2021/10/06 11:52:06;;;;;;;1.55;0.60;;;18.70;58.90;;;;;;5036813;28;20083;-50
2021/10/06 11:54:32;;;;;;;1.85;0.70;;;18.70;59.20;;;;;;5038636;28;20708;-51
2021/10/06 11:57:01;;;;;;;0.93;0.63;;;18.60;58.00;;;;;;5038512;28;20373;-52
2021/10/06 11:59:30;;;;;;;2.45;1.02;;;18.60;58.00;;;;;;5038725;28;20455;-51
2021/10/06 12:01:58;;;;;;;1.27;0.60;;;18.40;58.60;;;;;;5038457;28;20036;-52
2021/10/06 12:04:26;;;;;;;1.77;0.75;;;18.50;59.60;;;;;;5038447;28;20488;-48
2021/10/06 12:06:59;;;;;;;2.58;0.60;;;18.40;61.30;;;;;;5037520;28;20388;-46
2021/10/06 12:09:25;;;;;;;1.85;0.63;;;18.50;61.80;;;;;;5038653;28;20108;-49
2021/10/06 12:11:51;;;;;;;1.63;0.57;;;18.50;61.50;;;;;;5038381;28;20036;-49
2021/10/06 12:14:51;;;;;;;1.52;0.80;;;18.70;61.40;;;;;;5031623;28;20034;-51
2021/10/06 12:17:29;;;;;;;4.13;0.70;;;18.90;59.00;;;;;;5018944;28;20061;-51
2021/10/06 12:20:12;;;;;;;2.10;0.85;;;19.20;58.90;;;;;;5018789;28;20038;-48
2021/10/06 12:22:40;;;;;;;1.50;0.60;;;19.30;56.20;;;;;;5017855;28;20030;-50
2021/10/06 12:25:18;;;;;;;1.00;0.68;;;19.30;58.70;;;;;;5018362;28;20022;-51
2021/10/06 12:27:49;;;;;;;1.98;0.60;;;19.40;59.10;;;;;;5018669;28;20036;-50
2021/10/06 12:30:22;;;;;;;1.40;0.55;;;19.40;58.80;;;;;;5018554;28;20036;-49
2021/10/06 12:32:57;;;;;;;3.60;0.45;;;19.40;58.00;;;;;;5018749;28;20022;-50
2021/10/06 12:35:23;;;;;;;1.25;0.50;;;19.60;59.10;;;;;;5028398;28;20040;-49
2021/10/06 12:38:01;;;;;;;0.93;0.57;;;19.60;58.10;;;;;;5037664;28;20025;-48
2021/10/06 12:40:52;;;;;;;0.60;0.55;;;19.70;58.00;;;;;;5036276;28;20029;-53
2021/10/06 12:43:27;;;;;;;1.67;0.60;;;19.80;54.80;;;;;;5030066;28;20037;-47
2021/10/06 12:45:58;;;;;;;2.17;0.60;;;19.70;58.40;;;;;;5035085;28;20033;-49
2021/10/06 12:48:38;;;;;;;1.73;0.70;;;19.70;57.80;;;;;;5035313;28;20092;-49
2021/10/06 12:51:06;;;;;;;1.20;0.50;;;19.60;56.40;;;;;;5034195;28;20424;-48